createdAt,value
2019-04-21T00:01:50.683Z,74.10
2019-04-21T00:04:34.632Z,74.42
2019-04-21T00:07:13.152Z,75.06
2019-04-21T00:09:53.741Z,75.49
2019-04-21T00:12:22.001Z,75.12
2019-04-21T00:14:46.776Z,76.07
2019-04-21T00:17:12.914Z,75.79
2019-04-21T00:19:45.967Z,76.09
2019-04-21T00:22:30.162Z,76.34
2019-04-21T00:25:08.958Z,76.61
2019-04-21T00:27:38.655Z,76.35
2019-04-21T00:30:16.084Z,75.79
2019-04-21T00:32:38.098Z,76.31
2019-04-21T00:35:04.748Z,76.64
2019-04-21T00:37:53.187Z,76.61
2019-04-21T00:40:25.690Z,76.93
2019-04-21T00:42:55.676Z,77.11
2019-04-21T00:45:26.349Z,77.77
2019-04-21T00:48:03.889Z,77.58
2019-04-21T00:50:40.417Z,77.44
2019-04-21T00:53:16.906Z,77.74
2019-04-21T00:55:50.052Z,78.04
2019-04-21T00:58:28.675Z,78.64
2019-04-21T01:00:58.569Z,79.25
2019-04-21T01:03:47.439Z,78.80
2019-04-21T01:06:03.683Z,79.36
2019-04-21T01:08:32.757Z,79.13
2019-04-21T01:11:01.508Z,79.26
2019-04-21T01:13:45.625Z,78.80
2019-04-21T01:16:22.365Z,79.21
2019-04-21T01:18:46.290Z,80.03
2019-04-21T01:20:59.167Z,80.04
2019-04-21T01:23:29.831Z,79.87
2019-04-21T01:26:14.668Z,80.38
2019-04-21T01:28:52.455Z,80.29
2019-04-21T01:31:22.734Z,80.34
2019-04-21T01:33:57.495Z,80.79
2019-04-21T01:36:25.786Z,80.68
2019-04-21T01:39:08.392Z,80.97
2019-04-21T01:41:43.121Z,80.45
2019-04-21T01:44:05.030Z,80.35
2019-04-21T01:46:33.952Z,80.78
2019-04-21T01:49:04.433Z,80.66
2019-04-21T01:51:59.673Z,80.70
2019-04-21T01:54:45.532Z,81.09
2019-04-21T01:57:34.696Z,80.93
2019-04-21T02:00:02.350Z,81.76
2019-04-21T02:02:43.332Z,81.79
2019-04-21T02:05:17.533Z,82.40
2019-04-21T02:07:49.148Z,82.04
2019-04-21T02:10:27.397Z,82.38
2019-04-21T02:12:50.923Z,82.62
2019-04-21T02:15:31.281Z,82.60
2019-04-21T02:17:59.620Z,83.04
2019-04-21T02:20:24.413Z,83.26
2019-04-21T02:25:39.733Z,83.56
2019-04-21T02:28:16.355Z,83.74
2019-04-21T02:31:00.770Z,83.38
2019-04-21T02:36:00.522Z,83.88
2019-04-21T02:38:30.148Z,83.58
2019-04-21T02:43:25.620Z,84.04
2019-04-21T02:46:04.460Z,84.80
2019-04-21T02:48:38.874Z,84.06
2019-04-21T02:51:10.705Z,84.81
2019-04-21T02:56:22.675Z,85.68
2019-04-21T02:59:03.037Z,84.98
2019-04-21T03:04:34.872Z,85.06
2019-04-21T03:09:46.160Z,84.89
2019-04-21T03:22:31.688Z,86.01
2019-04-21T03:27:56.932Z,86.07
2019-04-21T03:33:23.477Z,86.78
2019-04-21T03:38:00.248Z,87.10
2019-04-21T03:40:26.636Z,87.14
2019-04-21T03:42:57.198Z,87.39
2019-04-21T03:45:31.081Z,87.48
2019-04-21T03:48:04.735Z,87.20
2019-04-21T03:50:37.231Z,87.34
2019-04-21T03:53:16.767Z,87.66
2019-04-21T04:01:05.847Z,87.00
2019-04-21T04:06:24.579Z,86.96
2019-04-21T04:14:35.546Z,87.59
2019-04-21T04:19:44.683Z,87.67
2019-04-21T04:22:14.645Z,88.03
2019-04-21T04:24:39.574Z,88.55
2019-04-21T04:27:21.320Z,89.15
2019-04-21T04:29:48.360Z,89.04
2019-04-21T04:32:16.571Z,89.43
2019-04-21T04:34:58.864Z,89.00
2019-04-21T04:40:13.651Z,89.28
2019-04-21T04:43:11.687Z,89.01
2019-04-21T04:50:49.481Z,89.01
2019-04-21T04:53:22.274Z,88.97
2019-04-21T04:56:02.179Z,88.92
2019-04-21T04:58:54.653Z,88.89
2019-04-21T05:01:14.628Z,89.11
2019-04-21T05:19:16.093Z,89.12
2019-04-21T05:21:55.472Z,89.77
2019-04-21T05:24:12.417Z,90.21
2019-04-21T05:26:43.449Z,90.38
2019-04-21T05:29:10.573Z,90.36
2019-04-21T05:32:09.173Z,90.33
2019-04-21T05:34:49.295Z,90.06
2019-04-21T05:37:28.543Z,90.04
2019-04-21T05:40:00.521Z,89.75
2019-04-21T05:42:35.367Z,89.70
2019-04-21T05:45:17.417Z,89.78
2019-04-21T05:48:02.743Z,89.61
2019-04-21T05:50:27.992Z,89.37
2019-04-21T05:52:53.665Z,89.34
2019-04-21T05:55:54.596Z,89.02
2019-04-21T05:58:08.646Z,89.51
2019-04-21T06:01:09.458Z,89.43
2019-04-21T06:03:26.749Z,89.07
2019-04-21T06:08:27.105Z,88.30
2019-04-21T06:11:02.086Z,88.01
2019-04-21T06:13:36.418Z,88.73
2019-04-21T06:16:05.849Z,88.76
2019-04-21T06:18:42.086Z,88.41
2019-04-21T06:23:49.641Z,87.91
2019-04-21T06:26:28.186Z,87.66
2019-04-21T06:29:03.978Z,87.29
2019-04-21T06:33:59.730Z,87.18
2019-04-21T06:37:07.938Z,87.64
2019-04-21T06:39:48.221Z,86.85
2019-04-21T06:42:09.048Z,86.28
2019-04-21T06:44:48.475Z,85.92
2019-04-21T06:47:26.632Z,86.41
2019-04-21T06:49:47.498Z,85.95
2019-04-21T06:52:43.545Z,85.74
2019-04-21T06:54:57.266Z,85.18
2019-04-21T06:57:34.775Z,84.96
2019-04-21T06:59:59.977Z,84.59
2019-04-21T07:03:00.042Z,84.31
2019-04-21T07:05:14.094Z,84.16
2019-04-21T07:07:55.194Z,83.86
2019-04-21T07:10:20.998Z,83.60
2019-04-21T07:12:58.968Z,83.61
2019-04-21T07:15:41.023Z,83.70
2019-04-21T07:18:08.352Z,83.47
2019-04-21T07:20:44.956Z,83.58
2019-04-21T07:23:16.398Z,83.35
2019-04-21T07:25:51.179Z,83.33
2019-04-21T07:28:25.581Z,83.00
2019-04-21T07:31:00.739Z,82.12
2019-04-21T07:33:52.377Z,80.56
2019-04-21T07:35:55.793Z,76.57
2019-04-21T07:38:36.289Z,71.12
2019-04-21T07:41:02.568Z,69.93
2019-04-21T07:43:35.631Z,68.20
2019-04-21T07:46:06.772Z,66.63
2019-04-21T07:48:50.113Z,66.78
2019-04-21T07:51:50.640Z,65.24
2019-04-21T07:54:23.847Z,63.20
2019-04-21T07:56:38.281Z,61.99
2019-04-21T07:59:39.637Z,62.54
2019-04-21T08:02:00.805Z,62.31
2019-04-21T08:07:26.621Z,60.74
2019-04-21T08:09:46.762Z,59.08
2019-04-21T08:12:20.325Z,59.73
2019-04-21T08:15:13.998Z,57.32
2019-04-21T08:17:36.489Z,58.41
2019-04-21T08:20:09.266Z,57.67
2019-04-21T08:22:48.038Z,57.46
2019-04-21T08:25:14.915Z,57.06
2019-04-21T08:27:56.995Z,56.67
2019-04-21T08:30:28.799Z,57.54
2019-04-21T08:36:03.103Z,55.26
2019-04-21T08:38:08.840Z,54.80
2019-04-21T08:40:55.880Z,56.64
2019-04-21T08:43:20.829Z,56.21
2019-04-21T08:45:52.431Z,56.31
2019-04-21T08:48:22.615Z,55.29
2019-04-21T08:51:07.744Z,55.03
2019-04-21T08:53:50.625Z,55.49
2019-04-21T08:56:21.410Z,54.48
2019-04-21T08:59:24.289Z,54.77
2019-04-21T09:02:06.363Z,54.39
2019-04-21T09:04:41.208Z,54.32
2019-04-21T09:07:21.446Z,54.46
2019-04-21T09:09:47.413Z,54.31
2019-04-21T09:12:15.026Z,53.95
2019-04-21T09:14:50.671Z,53.53
2019-04-21T09:17:15.143Z,52.97
2019-04-21T09:22:30.691Z,52.28
2019-04-21T09:25:05.885Z,51.83
2019-04-21T09:27:30.753Z,52.03
2019-04-21T09:29:54.040Z,52.10
2019-04-21T09:32:23.852Z,52.05
2019-04-21T09:34:53.872Z,49.88
2019-04-21T09:37:37.942Z,48.09
2019-04-21T09:39:57.848Z,48.29
2019-04-21T09:42:35.986Z,48.64
2019-04-21T09:45:04.925Z,50.46
2019-04-21T09:47:41.793Z,50.00
2019-04-21T09:50:06.737Z,48.89
2019-04-21T09:52:44.847Z,48.62
2019-04-21T09:55:15.974Z,48.49
2019-04-21T09:57:51.590Z,42.94
2019-04-21T10:00:21.081Z,43.08
2019-04-21T10:02:58.633Z,42.75
2019-04-21T10:05:25.078Z,42.84
2019-04-21T10:07:55.829Z,42.30
2019-04-21T10:10:27.516Z,42.33
2019-04-21T10:12:58.348Z,43.16
2019-04-21T10:15:29.800Z,42.18
2019-04-21T10:18:03.527Z,41.98
2019-04-21T10:20:34.145Z,40.97
2019-04-21T10:23:05.023Z,40.21
2019-04-21T10:25:36.801Z,40.71
2019-04-21T10:28:07.501Z,40.89
2019-04-21T10:30:38.501Z,40.45
2019-04-21T10:33:10.372Z,40.54
2019-04-21T10:35:41.352Z,39.79
2019-04-21T10:38:22.969Z,39.63
2019-04-21T10:40:45.268Z,41.09
2019-04-21T10:43:20.308Z,40.63
2019-04-21T10:45:48.864Z,40.32
2019-04-21T10:48:20.916Z,39.94
2019-04-21T10:50:52.686Z,39.26
2019-04-21T10:53:27.019Z,39.83
2019-04-21T10:56:11.445Z,39.54
2019-04-21T10:58:34.048Z,39.43
2019-04-21T11:01:16.803Z,39.65
2019-04-21T11:04:07.502Z,35.29
2019-04-21T11:06:37.098Z,33.49
2019-04-21T11:09:10.937Z,34.17
2019-04-21T11:11:44.570Z,33.29
2019-04-21T11:14:13.940Z,32.38
2019-04-21T11:16:47.254Z,32.22
2019-04-21T11:19:17.959Z,33.35
2019-04-21T11:21:49.310Z,33.47
2019-04-21T11:24:20.899Z,33.42
2019-04-21T11:26:51.946Z,32.92
2019-04-21T11:29:23.288Z,33.43
2019-04-21T11:31:54.864Z,33.30
2019-04-21T11:34:25.577Z,33.54
2019-04-21T11:36:58.374Z,34.17
2019-04-21T11:39:39.510Z,34.91
2019-04-21T11:42:07.831Z,35.84
2019-04-21T11:44:39.510Z,35.72
2019-04-21T11:47:16.568Z,35.07
2019-04-21T11:49:47.226Z,35.26
2019-04-21T11:52:19.169Z,35.39
2019-04-21T11:54:50.945Z,35.42
2019-04-21T11:57:27.867Z,35.34
2019-04-21T11:59:53.880Z,34.72
2019-04-21T12:02:25.676Z,32.94
2019-04-21T12:04:57.247Z,33.34
2019-04-21T12:07:29.233Z,32.42
2019-04-21T12:09:59.955Z,32.92
2019-04-21T12:12:30.574Z,31.61
2019-04-21T12:15:01.931Z,30.40
2019-04-21T12:17:34.090Z,30.18
2019-04-21T12:20:06.450Z,29.94
2019-04-21T12:22:37.450Z,31.10
2019-04-21T12:25:13.314Z,30.70
2019-04-21T12:27:43.968Z,29.66
2019-04-21T12:30:15.656Z,29.64
2019-04-21T12:32:51.946Z,29.89
2019-04-21T12:35:23.844Z,28.45
2019-04-21T12:37:55.015Z,28.90
2019-04-21T12:40:26.833Z,30.24
2019-04-21T12:42:58.529Z,31.46
2019-04-21T12:45:29.573Z,31.43
2019-04-21T12:48:00.166Z,31.05
2019-04-21T12:50:32.048Z,31.14
2019-04-21T12:53:03.315Z,31.43
2019-04-21T12:55:37.010Z,31.55
2019-04-21T12:58:07.715Z,32.42
2019-04-21T13:00:40.986Z,31.93
2019-04-21T13:03:11.930Z,31.46
2019-04-21T13:05:43.408Z,30.60
2019-04-21T13:08:15.358Z,30.55
2019-04-21T13:10:46.407Z,30.04
2019-04-21T13:13:19.729Z,30.80
2019-04-21T13:15:49.511Z,31.18
2019-04-21T13:18:20.605Z,30.83
2019-04-21T13:20:51.868Z,30.10
2019-04-21T13:23:23.151Z,30.74
2019-04-21T13:25:54.122Z,29.73
2019-04-21T13:28:24.986Z,29.63
2019-04-21T13:30:56.055Z,29.91
2019-04-21T13:33:27.143Z,29.21
2019-04-21T13:35:59.262Z,30.46
2019-04-21T13:38:36.904Z,29.41
2019-04-21T13:41:32.630Z,30.32
2019-04-21T13:44:15.900Z,30.03
2019-04-21T13:46:49.204Z,29.48
2019-04-21T13:49:21.138Z,28.60
2019-04-21T13:51:52.044Z,28.49
2019-04-21T13:54:22.570Z,28.13
2019-04-21T13:56:54.391Z,27.67
2019-04-21T13:59:26.322Z,27.49
2019-04-21T14:01:58.274Z,27.64
2019-04-21T14:04:29.533Z,27.17
2019-04-21T14:07:00.565Z,26.74
2019-04-21T14:09:40.287Z,27.70
2019-04-21T14:12:03.572Z,27.78
2019-04-21T14:14:36.606Z,27.63
2019-04-21T14:17:07.258Z,27.52
2019-04-21T14:19:37.773Z,27.08
2019-04-21T14:22:10.309Z,26.96
2019-04-21T14:24:41.633Z,25.86
2019-04-21T14:27:12.377Z,26.01
2019-04-21T14:29:43.856Z,26.33
2019-04-21T14:32:16.014Z,26.48
2019-04-21T14:34:49.881Z,26.29
2019-04-21T14:37:20.170Z,26.75
2019-04-21T14:39:59.487Z,26.73
2019-04-21T14:42:24.324Z,27.09
2019-04-21T14:44:54.903Z,25.78
2019-04-21T14:47:59.373Z,25.87
2019-04-21T14:50:50.430Z,26.37
2019-04-21T14:53:25.541Z,26.55
2019-04-21T14:55:57.526Z,25.83
2019-04-21T14:58:28.294Z,26.56
2019-04-21T15:01:06.026Z,26.46
2019-04-21T15:03:39.296Z,26.62
2019-04-21T15:06:11.495Z,26.76
2019-04-21T15:08:42.958Z,26.77
2019-04-21T15:11:13.980Z,25.86
2019-04-21T15:13:45.836Z,25.94
2019-04-21T15:16:19.004Z,25.95
2019-04-21T15:18:50.633Z,25.39
2019-04-21T15:21:21.616Z,26.23
2019-04-21T15:23:52.383Z,24.90
2019-04-21T15:26:24.132Z,24.68
2019-04-21T15:28:55.041Z,25.26
2019-04-21T15:31:30.555Z,25.17
2019-04-21T15:33:59.084Z,24.92
2019-04-21T15:36:33.126Z,24.66
2019-04-21T15:39:03.546Z,24.50
2019-04-21T15:41:34.479Z,24.78
2019-04-21T15:44:09.770Z,25.48
2019-04-21T15:46:43.971Z,25.01
2019-04-21T15:49:15.413Z,25.58
2019-04-21T15:51:46.415Z,25.09
2019-04-21T15:54:18.453Z,25.28
2019-04-21T15:56:58.608Z,25.83
2019-04-21T15:59:46.424Z,25.25
2019-04-21T16:02:34.873Z,25.63
2019-04-21T16:05:06.596Z,25.78
2019-04-21T16:07:38.067Z,25.23
2019-04-21T16:10:11.826Z,25.33
2019-04-21T16:12:43.642Z,25.88
2019-04-21T16:15:16.700Z,26.01
2019-04-21T16:17:48.793Z,26.15
2019-04-21T16:20:21.977Z,26.27
2019-04-21T16:22:52.901Z,25.53
2019-04-21T16:25:23.563Z,25.41
2019-04-21T16:27:55.196Z,25.51
2019-04-21T16:30:26.167Z,25.36
2019-04-21T16:32:57.728Z,25.65
2019-04-21T16:35:29.582Z,25.63
2019-04-21T16:38:01.235Z,26.18
2019-04-21T16:40:43.059Z,25.22
2019-04-21T16:43:05.962Z,25.71
2019-04-21T16:45:37.022Z,25.15
2019-04-21T16:48:07.621Z,25.33
2019-04-21T16:50:39.375Z,25.65
2019-04-21T16:53:19.932Z,25.11
2019-04-21T16:55:55.174Z,25.94
2019-04-21T16:59:00.882Z,25.78
2019-04-21T17:01:31.952Z,25.61
2019-04-21T17:04:02.671Z,25.44
2019-04-21T17:06:33.343Z,26.17
2019-04-21T17:09:05.041Z,26.00
2019-04-21T17:11:39.218Z,26.14
2019-04-21T17:14:30.075Z,26.82
2019-04-21T17:17:04.001Z,27.45
2019-04-21T17:19:20.015Z,28.34
2019-04-21T17:21:45.692Z,28.23
2019-04-21T17:24:16.732Z,27.27
2019-04-21T17:26:48.187Z,28.37
2019-04-21T17:29:20.857Z,27.57
2019-04-21T17:31:53.156Z,29.04
2019-04-21T17:34:27.696Z,30.39
2019-04-21T17:36:57.203Z,29.87
2019-04-21T17:39:28.931Z,30.03
2019-04-21T17:42:12.976Z,30.37
2019-04-21T17:44:33.040Z,31.45
2019-04-21T17:47:13.292Z,32.47
2019-04-21T17:49:37.212Z,33.30
2019-04-21T17:52:25.477Z,32.92
2019-04-21T17:55:10.307Z,34.00
2019-04-21T17:57:59.461Z,34.72
2019-04-21T18:00:52.954Z,35.17
2019-04-21T18:02:59.000Z,35.26
2019-04-21T18:05:39.355Z,36.21
2019-04-21T18:08:11.321Z,36.73
2019-04-21T18:10:37.373Z,37.18
2019-04-21T18:13:01.332Z,36.61
2019-04-21T18:15:44.357Z,37.53
2019-04-21T18:17:58.760Z,37.85
2019-04-21T18:20:32.319Z,38.25
2019-04-21T18:23:34.920Z,38.88
2019-04-21T18:26:00.033Z,39.08
2019-04-21T18:28:23.627Z,39.41
2019-04-21T18:31:04.660Z,39.70
2019-04-21T18:33:40.484Z,40.23
2019-04-21T18:36:25.391Z,40.67
2019-04-21T18:39:37.867Z,41.30
2019-04-21T18:42:17.550Z,41.15
2019-04-21T18:48:12.450Z,41.41
2019-04-21T18:50:47.806Z,41.85
2019-04-21T18:53:32.546Z,42.60
2019-04-21T18:55:56.212Z,42.86
2019-04-21T18:58:22.163Z,43.76
2019-04-21T19:01:03.240Z,43.83
2019-04-21T19:03:35.801Z,43.32
2019-04-21T19:06:08.545Z,43.60
2019-04-21T19:08:57.775Z,43.94
2019-04-21T19:11:23.731Z,44.23
2019-04-21T19:14:20.913Z,44.55
2019-04-21T19:19:36.656Z,45.98
2019-04-21T19:21:46.956Z,45.90
2019-04-21T19:24:27.557Z,45.58
2019-04-21T19:31:59.939Z,46.38
2019-04-21T19:34:18.649Z,46.73
2019-04-21T19:36:51.148Z,46.68
2019-04-21T19:39:33.267Z,47.61
2019-04-21T19:42:00.312Z,47.41
2019-04-21T19:44:45.637Z,48.40
2019-04-21T19:47:19.846Z,48.71
2019-04-21T19:49:52.562Z,48.47
2019-04-21T19:52:09.421Z,48.93
2019-04-21T19:54:41.202Z,48.87
2019-04-21T19:57:09.033Z,49.08
2019-04-21T19:59:48.082Z,49.45
2019-04-21T20:02:14.317Z,50.25
2019-04-21T20:04:52.218Z,50.04
2019-04-21T20:07:34.290Z,50.85
2019-04-21T20:10:14.385Z,51.08
2019-04-21T20:12:45.120Z,51.38
2019-04-21T20:15:20.326Z,51.38
2019-04-21T20:17:42.244Z,51.71
2019-04-21T20:20:00.661Z,52.18
2019-04-21T20:22:36.863Z,51.98
2019-04-21T20:25:11.631Z,52.01
2019-04-21T20:27:45.203Z,52.96
2019-04-21T20:30:31.063Z,53.61
2019-04-21T20:33:14.170Z,54.20
2019-04-21T20:35:48.539Z,53.85
2019-04-21T20:38:01.975Z,54.40
2019-04-21T20:40:33.359Z,54.59
2019-04-21T20:43:23.680Z,54.89
2019-04-21T20:45:45.833Z,54.77
2019-04-21T20:48:10.468Z,55.17
2019-04-21T20:50:43.496Z,55.46
2019-04-21T20:53:19.848Z,55.84
2019-04-21T20:55:54.258Z,55.97
2019-04-21T20:58:26.005Z,55.94
2019-04-21T21:03:37.771Z,56.05
2019-04-21T21:05:52.979Z,56.61
2019-04-21T21:08:38.589Z,56.25
2019-04-21T21:11:00.311Z,56.53
2019-04-21T21:13:42.799Z,56.85
2019-04-21T21:16:41.460Z,57.60
2019-04-21T21:21:22.434Z,57.56
2019-04-21T21:23:52.757Z,58.69
2019-04-21T21:26:30.700Z,58.91
2019-04-21T21:28:54.044Z,59.36
2019-04-21T21:31:31.322Z,59.50
2019-04-21T21:34:11.883Z,59.75
2019-04-21T21:36:38.254Z,60.27
2019-04-21T21:39:09.648Z,60.28
2019-04-21T21:41:29.861Z,60.86
2019-04-21T21:44:03.923Z,61.20
2019-04-21T21:46:45.572Z,61.37
2019-04-21T21:49:08.459Z,61.53
2019-04-21T21:51:44.980Z,61.27
2019-04-21T21:54:07.594Z,61.61
2019-04-21T21:56:38.535Z,62.56
2019-04-21T21:59:15.074Z,62.80
2019-04-21T22:01:47.148Z,62.74
2019-04-21T22:04:20.897Z,63.08
2019-04-21T22:06:55.380Z,63.05
2019-04-21T22:09:19.734Z,63.43
2019-04-21T22:11:56.301Z,64.48
2019-04-21T22:14:32.890Z,64.30
2019-04-21T22:19:52.241Z,64.77
2019-04-21T22:22:17.919Z,65.02
2019-04-21T22:24:50.768Z,65.17
2019-04-21T22:27:09.447Z,65.23
2019-04-21T22:29:45.350Z,65.57
2019-04-21T22:32:17.376Z,65.94
2019-04-21T22:34:53.974Z,66.50
2019-04-21T22:37:29.951Z,66.61
2019-04-21T22:40:07.142Z,66.51
2019-04-21T22:42:31.238Z,66.94
2019-04-21T22:44:58.576Z,67.30
2019-04-21T22:47:33.772Z,67.27
2019-04-21T22:50:02.670Z,66.99
2019-04-21T22:52:33.780Z,67.02
2019-04-21T22:55:13.496Z,67.42
2019-04-21T22:57:43.414Z,67.29
2019-04-21T23:00:15.350Z,67.62
2019-04-21T23:02:46.914Z,67.95
2019-04-21T23:05:22.497Z,68.13
2019-04-21T23:07:55.210Z,68.67
2019-04-21T23:10:25.320Z,68.44
2019-04-21T23:12:59.534Z,68.34
2019-04-21T23:15:37.648Z,68.98
2019-04-21T23:18:22.987Z,69.02
2019-04-21T23:20:53.566Z,69.85
2019-04-21T23:23:29.692Z,69.69
2019-04-21T23:25:53.105Z,69.98
2019-04-21T23:28:34.582Z,69.48
2019-04-21T23:31:03.602Z,69.67
2019-04-21T23:33:18.021Z,69.54
2019-04-21T23:35:49.262Z,69.65
2019-04-21T23:38:26.531Z,69.83
2019-04-21T23:40:57.880Z,70.26
2019-04-21T23:43:27.495Z,69.90
2019-04-21T23:45:57.277Z,70.27
2019-04-21T23:48:39.073Z,70.96
2019-04-21T23:51:13.503Z,71.12
2019-04-21T23:53:33.428Z,70.57
2019-04-21T23:56:13.464Z,71.14
2019-04-21T23:58:44.901Z,70.99
